createdAt,value
2018-01-25T00:00:24.895Z,79.20
2018-01-25T00:02:52.075Z,79.40
2018-01-25T00:05:19.098Z,79.50
2018-01-25T00:07:46.171Z,79.40
2018-01-25T00:10:12.380Z,80.00
2018-01-25T00:12:39.681Z,80.20
2018-01-25T00:15:07.795Z,81.60
2018-01-25T00:17:34.905Z,81.60
2018-01-25T00:20:02.956Z,82.20
2018-01-25T00:22:30.845Z,82.00
2018-01-25T00:24:57.106Z,81.20
2018-01-25T00:27:24.366Z,82.50
2018-01-25T00:29:51.349Z,82.60
2018-01-25T00:32:18.351Z,80.90
2018-01-25T00:34:44.593Z,80.90
2018-01-25T00:37:10.801Z,81.30
2018-01-25T00:39:38.697Z,80.60
2018-01-25T00:42:05.786Z,81.20
2018-01-25T00:44:32.337Z,81.20
2018-01-25T00:46:59.761Z,80.70
2018-01-25T00:49:26.203Z,80.70
2018-01-25T00:51:52.402Z,81.10
2018-01-25T00:54:20.693Z,81.50
2018-01-25T00:56:47.893Z,81.50
2018-01-25T00:59:15.063Z,81.60
2018-01-25T01:01:43.226Z,81.60
2018-01-25T01:04:11.206Z,82.50
2018-01-25T01:06:37.461Z,82.50
2018-01-25T01:09:04.692Z,82.50
2018-01-25T01:11:30.899Z,82.40
2018-01-25T01:13:58.494Z,81.80
2018-01-25T01:16:25.217Z,80.80
2018-01-25T01:18:52.186Z,80.90
2018-01-25T01:21:19.200Z,80.40
2018-01-25T01:23:45.625Z,80.40
2018-01-25T01:26:13.209Z,81.20
2018-01-25T01:28:39.953Z,81.10
2018-01-25T01:31:07.132Z,80.40
2018-01-25T01:33:34.761Z,82.30
2018-01-25T01:36:01.803Z,82.30
2018-01-25T01:38:28.640Z,81.90
2018-01-25T01:40:56.312Z,81.20
2018-01-25T01:43:23.175Z,81.20
2018-01-25T01:45:50.145Z,80.70
2018-01-25T01:48:17.782Z,80.40
2018-01-25T01:50:43.995Z,80.30
2018-01-25T01:53:10.400Z,80.20
2018-01-25T01:55:37.515Z,79.80
2018-01-25T01:58:04.731Z,80.50
2018-01-25T02:00:33.158Z,81.50
2018-01-25T02:03:00.664Z,80.80
2018-01-25T02:05:27.407Z,80.80
2018-01-25T02:07:53.631Z,81.70
2018-01-25T02:10:20.439Z,81.40
2018-01-25T02:12:47.695Z,80.80
2018-01-25T02:15:15.676Z,81.50
2018-01-25T02:17:41.902Z,81.40
2018-01-25T02:20:08.810Z,81.40
2018-01-25T02:22:36.018Z,82.30
2018-01-25T02:25:04.096Z,82.00
2018-01-25T02:27:31.142Z,81.80
2018-01-25T02:29:57.445Z,81.80
2018-01-25T02:32:23.921Z,81.20
2018-01-25T02:34:50.910Z,81.30
2018-01-25T02:37:17.665Z,81.30
2018-01-25T02:39:44.703Z,81.30
2018-01-25T02:42:10.994Z,81.30
2018-01-25T02:44:37.913Z,80.70
2018-01-25T02:47:05.193Z,80.70
2018-01-25T02:49:31.423Z,80.60
2018-01-25T02:51:57.653Z,80.40
2018-01-25T02:54:25.269Z,80.10
2018-01-25T02:56:51.661Z,80.10
2018-01-25T02:59:18.756Z,80.60
2018-01-25T03:01:44.998Z,80.40
2018-01-25T03:04:11.913Z,80.80
2018-01-25T03:06:38.729Z,80.60
2018-01-25T03:09:04.949Z,80.90
2018-01-25T03:11:32.467Z,81.90
2018-01-25T03:13:58.679Z,81.20
2018-01-25T03:16:25.193Z,81.10
2018-01-25T03:18:52.222Z,81.00
2018-01-25T03:21:19.108Z,81.00
2018-01-25T03:23:45.315Z,80.80
2018-01-25T03:26:11.523Z,81.20
2018-01-25T03:28:38.077Z,81.40
2018-01-25T03:31:06.074Z,81.60
2018-01-25T03:33:32.260Z,81.50
2018-01-25T03:35:59.479Z,81.40
2018-01-25T03:38:27.250Z,80.40
2018-01-25T03:40:54.260Z,80.10
2018-01-25T03:43:21.017Z,80.10
2018-01-25T03:45:47.283Z,80.30
2018-01-25T03:48:13.511Z,81.00
2018-01-25T03:50:40.630Z,81.50
2018-01-25T03:53:08.806Z,81.50
2018-01-25T03:55:36.420Z,81.20
2018-01-25T03:58:03.303Z,81.20
2018-01-25T04:00:30.311Z,81.20
2018-01-25T04:02:56.774Z,81.20
2018-01-25T04:05:23.906Z,80.80
2018-01-25T04:07:50.176Z,80.80
2018-01-25T04:10:16.969Z,80.50
2018-01-25T04:12:43.158Z,80.40
2018-01-25T04:15:09.396Z,80.60
2018-01-25T04:17:35.821Z,80.90
2018-01-25T04:20:02.140Z,80.40
2018-01-25T04:22:29.078Z,80.30
2018-01-25T04:24:56.847Z,81.00
2018-01-25T04:27:23.891Z,80.90
2018-01-25T04:29:51.554Z,81.60
2018-01-25T04:32:18.692Z,81.00
2018-01-25T04:34:45.634Z,81.10
2018-01-25T04:37:12.420Z,81.10
2018-01-25T04:39:39.847Z,81.70
2018-01-25T04:42:07.595Z,82.70
2018-01-25T04:44:34.531Z,83.10
2018-01-25T04:47:01.347Z,83.10
2018-01-25T04:49:28.141Z,83.40
2018-01-25T04:51:54.615Z,83.70
2018-01-25T04:54:20.875Z,82.80
2018-01-25T04:56:47.072Z,82.60
2018-01-25T04:59:13.289Z,83.30
2018-01-25T05:01:40.051Z,81.80
2018-01-25T05:04:06.619Z,81.50
2018-01-25T05:06:34.399Z,81.70
2018-01-25T05:09:02.402Z,81.50
2018-01-25T05:11:29.282Z,81.50
2018-01-25T05:13:55.529Z,81.50
2018-01-25T05:16:22.504Z,82.20
2018-01-25T05:18:48.826Z,82.20
2018-01-25T05:21:20.938Z,82.00
2018-01-25T05:23:47.866Z,82.20
2018-01-25T05:26:14.068Z,82.10
2018-01-25T05:28:41.286Z,82.10
2018-01-25T05:31:08.878Z,81.90
2018-01-25T05:33:35.118Z,81.80
2018-01-25T05:36:01.358Z,81.40
2018-01-25T05:38:27.965Z,80.90
2018-01-25T05:40:54.984Z,80.90
2018-01-25T05:43:22.014Z,81.40
2018-01-25T05:45:48.667Z,81.20
2018-01-25T05:48:15.619Z,82.20
2018-01-25T05:50:42.874Z,82.20
2018-01-25T05:53:09.967Z,82.40
2018-01-25T05:55:37.072Z,81.80
2018-01-25T05:58:04.562Z,81.50
2018-01-25T06:00:30.841Z,81.50
2018-01-25T06:02:57.457Z,81.50
2018-01-25T06:05:23.835Z,81.60
2018-01-25T06:07:50.874Z,81.80
2018-01-25T06:10:17.852Z,81.80
2018-01-25T06:12:44.394Z,81.60
2018-01-25T06:15:10.674Z,81.10
2018-01-25T06:17:37.678Z,80.90
2018-01-25T06:20:04.067Z,80.90
2018-01-25T06:22:31.519Z,81.10
2018-01-25T06:24:57.983Z,81.10
2018-01-25T06:27:25.024Z,82.30
2018-01-25T06:29:51.613Z,82.30
2018-01-25T06:32:18.659Z,82.10
2018-01-25T06:34:45.464Z,82.00
2018-01-25T06:37:11.661Z,81.80
2018-01-25T06:39:37.845Z,81.40
2018-01-25T06:42:04.694Z,81.40
2018-01-25T06:44:31.468Z,81.30
2018-01-25T06:46:58.248Z,81.50
2018-01-25T06:49:25.269Z,81.80
2018-01-25T06:51:53.129Z,82.50
2018-01-25T06:54:20.150Z,82.50
2018-01-25T06:56:47.187Z,82.50
2018-01-25T06:59:13.371Z,82.50
2018-01-25T07:01:39.905Z,82.00
2018-01-25T07:04:07.199Z,81.80
2018-01-25T07:06:34.582Z,82.20
2018-01-25T07:09:02.395Z,82.90
2018-01-25T07:11:28.775Z,82.80
2018-01-25T07:13:56.491Z,86.40
2018-01-25T07:16:23.281Z,86.40
2018-01-25T07:18:49.769Z,86.70
2018-01-25T07:21:16.759Z,85.70
2018-01-25T07:23:43.009Z,85.60
2018-01-25T07:26:10.160Z,84.90
2018-01-25T07:28:37.617Z,83.20
2018-01-25T07:31:04.334Z,82.30
2018-01-25T07:33:30.554Z,82.00
2018-01-25T07:35:58.102Z,81.70
2018-01-25T07:38:25.251Z,81.70
2018-01-25T07:40:52.546Z,81.70
2018-01-25T07:43:20.068Z,81.30
2018-01-25T07:45:47.342Z,81.20
2018-01-25T07:48:14.699Z,81.20
2018-01-25T07:50:40.925Z,81.60
2018-01-25T07:53:07.174Z,81.70
2018-01-25T07:55:33.548Z,81.70
2018-01-25T07:58:15.219Z,81.70
2018-01-25T08:00:42.774Z,81.90
2018-01-25T08:03:09.967Z,82.00
2018-01-25T08:05:36.960Z,82.20
2018-01-25T08:08:03.613Z,82.20
2018-01-25T08:10:30.944Z,82.40
2018-01-25T08:13:04.085Z,82.30
2018-01-25T08:15:31.836Z,82.30
2018-01-25T08:17:58.038Z,82.30
2018-01-25T08:20:24.254Z,82.60
2018-01-25T08:22:51.014Z,82.10
2018-01-25T08:25:17.884Z,82.20
2018-01-25T08:27:45.258Z,82.30
2018-01-25T08:30:12.327Z,82.20
2018-01-25T08:32:39.180Z,82.20
2018-01-25T08:35:05.958Z,82.20
2018-01-25T08:37:33.443Z,82.60
2018-01-25T08:40:00.119Z,82.60
2018-01-25T08:42:27.380Z,82.80
2018-01-25T08:44:54.767Z,83.10
2018-01-25T08:47:21.488Z,83.10
2018-01-25T08:49:49.376Z,83.40
2018-01-25T08:52:16.358Z,83.60
2018-01-25T08:54:42.579Z,83.60
2018-01-25T08:57:09.004Z,83.50
2018-01-25T08:59:36.255Z,84.00
2018-01-25T09:02:02.585Z,83.80
2018-01-25T09:04:29.848Z,83.60
2018-01-25T09:06:56.144Z,84.40
2018-01-25T09:09:23.126Z,84.00
2018-01-25T09:11:49.948Z,84.00
2018-01-25T09:14:16.205Z,82.90
2018-01-25T09:16:42.995Z,82.70
2018-01-25T09:19:10.084Z,82.60
2018-01-25T09:21:36.328Z,82.50
2018-01-25T09:24:03.219Z,83.60
2018-01-25T09:26:31.280Z,83.00
2018-01-25T09:28:57.633Z,83.00
2018-01-25T09:31:25.165Z,81.50
2018-01-25T09:33:51.932Z,81.70
2018-01-25T09:36:18.918Z,81.50
2018-01-25T09:38:45.109Z,81.60
2018-01-25T09:41:11.358Z,79.50
2018-01-25T09:43:37.670Z,80.90
2018-01-25T09:46:04.441Z,79.70
2018-01-25T09:48:30.677Z,80.00
2018-01-25T09:50:56.893Z,80.40
2018-01-25T09:53:24.129Z,80.00
2018-01-25T09:55:51.498Z,77.50
2018-01-25T09:58:19.074Z,76.80
2018-01-25T10:00:45.807Z,76.60
2018-01-25T10:03:13.986Z,75.60
2018-01-25T10:05:40.847Z,75.50
2018-01-25T10:08:07.394Z,76.10
2018-01-25T10:10:34.567Z,75.20
2018-01-25T10:13:01.640Z,74.90
2018-01-25T10:15:27.972Z,74.80
2018-01-25T10:17:54.724Z,75.10
2018-01-25T10:20:21.357Z,74.30
2018-01-25T10:22:47.593Z,74.90
2018-01-25T10:25:13.875Z,75.60
2018-01-25T10:27:41.300Z,75.90
2018-01-25T10:30:08.435Z,75.90
2018-01-25T10:32:36.796Z,77.00
2018-01-25T10:35:03.058Z,77.00
2018-01-25T10:37:29.494Z,73.50
2018-01-25T10:39:57.094Z,72.30
2018-01-25T10:42:23.326Z,72.20
2018-01-25T10:44:50.758Z,70.80
2018-01-25T10:47:17.709Z,72.40
2018-01-25T10:49:44.674Z,73.40
2018-01-25T10:52:12.375Z,73.40
2018-01-25T10:54:38.619Z,71.50
2018-01-25T10:57:06.336Z,69.70
2018-01-25T10:59:32.554Z,69.10
2018-01-25T11:02:04.977Z,69.50
2018-01-25T11:04:31.367Z,69.50
2018-01-25T11:06:57.562Z,68.80
2018-01-25T11:09:24.526Z,67.80
2018-01-25T11:11:50.739Z,67.80
2018-01-25T11:14:18.025Z,67.80
2018-01-25T11:16:46.084Z,66.80
2018-01-25T11:19:13.108Z,65.80
2018-01-25T11:21:40.075Z,65.20
2018-01-25T11:24:07.515Z,65.30
2018-01-25T11:26:35.693Z,66.50
2018-01-25T11:29:02.157Z,66.40
2018-01-25T11:31:29.213Z,62.70
2018-01-25T11:33:55.414Z,62.50
2018-01-25T11:36:22.015Z,61.20
2018-01-25T11:38:49.715Z,62.50
2018-01-25T11:41:15.933Z,62.50
2018-01-25T11:43:42.160Z,61.70
2018-01-25T11:46:08.366Z,63.80
2018-01-25T11:48:36.359Z,61.00
2018-01-25T11:51:03.149Z,61.10
2018-01-25T11:53:29.392Z,64.80
2018-01-25T11:55:56.345Z,64.00
2018-01-25T11:58:23.644Z,59.60
2018-01-25T12:00:50.618Z,58.30
2018-01-25T12:03:17.345Z,58.30
2018-01-25T12:05:44.264Z,58.00
2018-01-25T12:08:11.618Z,57.60
2018-01-25T12:10:38.778Z,57.60
2018-01-25T12:13:05.593Z,58.10
2018-01-25T12:15:31.814Z,56.90
2018-01-25T12:17:58.630Z,57.20
2018-01-25T12:20:25.523Z,57.20
2018-01-25T12:22:52.477Z,57.40
2018-01-25T12:25:19.964Z,58.40
2018-01-25T12:27:46.461Z,57.80
2018-01-25T12:30:13.317Z,58.20
2018-01-25T12:32:39.766Z,57.20
2018-01-25T12:35:06.080Z,58.00
2018-01-25T12:37:32.463Z,58.10
2018-01-25T12:39:58.832Z,58.40
2018-01-25T12:42:25.073Z,57.80
2018-01-25T12:44:52.003Z,56.40
2018-01-25T12:47:18.575Z,56.60
2018-01-25T12:49:45.546Z,55.50
2018-01-25T12:52:11.798Z,55.40
2018-01-25T12:54:38.020Z,55.50
2018-01-25T12:57:04.632Z,56.50
2018-01-25T12:59:31.720Z,55.80
2018-01-25T13:01:58.477Z,55.70
2018-01-25T13:04:24.705Z,55.90
2018-01-25T13:06:51.303Z,55.50
2018-01-25T13:09:18.068Z,55.60
2018-01-25T13:11:44.253Z,55.00
2018-01-25T13:14:12.165Z,54.50
2018-01-25T13:16:39.439Z,54.50
2018-01-25T13:19:06.139Z,54.90
2018-01-25T13:21:32.783Z,54.70
2018-01-25T13:23:59.842Z,54.20
2018-01-25T13:26:26.294Z,54.20
2018-01-25T13:28:53.056Z,54.50
2018-01-25T13:31:20.117Z,54.90
2018-01-25T13:33:47.866Z,56.20
2018-01-25T13:36:16.094Z,56.40
2018-01-25T13:38:42.711Z,55.70
2018-01-25T13:41:09.648Z,55.70
2018-01-25T13:43:35.885Z,55.90
2018-01-25T13:46:02.652Z,56.50
2018-01-25T13:48:28.924Z,57.20
2018-01-25T13:50:55.165Z,57.40
2018-01-25T13:53:23.076Z,57.10
2018-01-25T13:55:50.430Z,56.50
2018-01-25T13:58:17.443Z,56.70
2018-01-25T14:00:44.400Z,56.70
2018-01-25T14:03:11.450Z,57.30
2018-01-25T14:05:38.597Z,57.30
2018-01-25T14:08:04.844Z,57.90
2018-01-25T14:10:31.332Z,57.60
2018-01-25T14:12:58.378Z,58.20
2018-01-25T14:15:24.625Z,58.20
2018-01-25T14:17:51.453Z,58.90
2018-01-25T14:20:19.223Z,59.70
2018-01-25T14:22:46.011Z,59.70
2018-01-25T14:25:12.753Z,59.90
2018-01-25T14:27:39.092Z,60.30
2018-01-25T14:30:05.491Z,60.20
2018-01-25T14:32:32.385Z,60.60
2018-01-25T14:34:58.617Z,61.20
2018-01-25T14:37:26.214Z,62.60
2018-01-25T14:39:52.617Z,62.10
2018-01-25T14:42:20.324Z,62.40
2018-01-25T14:44:47.581Z,62.40
2018-01-25T14:47:14.310Z,62.80
2018-01-25T14:49:40.669Z,63.00
2018-01-25T14:52:07.450Z,63.10
2018-01-25T14:54:34.734Z,63.50
2018-01-25T14:57:01.058Z,63.60
2018-01-25T14:59:27.287Z,63.70
2018-01-25T15:01:54.011Z,63.50
2018-01-25T15:04:20.755Z,64.10
2018-01-25T15:06:47.526Z,64.60
2018-01-25T15:09:14.740Z,64.70
2018-01-25T15:11:41.767Z,64.50
2018-01-25T15:14:08.984Z,66.30
2018-01-25T15:16:36.515Z,66.00
2018-01-25T15:19:02.913Z,65.90
2018-01-25T15:21:29.982Z,66.40
2018-01-25T15:23:56.203Z,66.30
2018-01-25T15:26:22.959Z,67.20
2018-01-25T15:28:49.163Z,66.40
2018-01-25T15:31:16.157Z,66.20
2018-01-25T15:33:42.362Z,66.20
2018-01-25T15:36:08.650Z,66.70
2018-01-25T15:38:35.190Z,66.90
2018-01-25T15:41:03.178Z,65.90
2018-01-25T15:43:30.075Z,65.90
2018-01-25T15:45:57.623Z,66.60
2018-01-25T15:48:24.175Z,66.60
2018-01-25T15:50:51.928Z,66.00
2018-01-25T15:53:19.029Z,66.80
2018-01-25T15:55:45.927Z,66.70
2018-01-25T15:58:14.277Z,66.80
2018-01-25T16:00:40.547Z,67.30
2018-01-25T16:03:08.017Z,67.90
2018-01-25T16:05:35.154Z,68.60
2018-01-25T16:08:02.049Z,68.60
2018-01-25T16:10:29.363Z,68.40
2018-01-25T16:12:56.441Z,68.10
2018-01-25T16:15:22.677Z,68.10
2018-01-25T16:17:49.544Z,68.80
2018-01-25T16:20:16.882Z,69.10
2018-01-25T16:22:43.091Z,69.30
2018-01-25T16:25:09.971Z,70.70
2018-01-25T16:27:36.444Z,70.20
2018-01-25T16:30:03.558Z,71.40
2018-01-25T16:32:31.232Z,71.20
2018-01-25T16:34:58.698Z,71.60
2018-01-25T16:37:29.049Z,71.60
2018-01-25T16:39:56.916Z,72.10
2018-01-25T16:42:23.342Z,72.10
2018-01-25T16:44:53.860Z,72.10
2018-01-25T16:47:21.501Z,72.10
2018-01-25T16:49:48.215Z,70.20
2018-01-25T16:52:15.332Z,69.50
2018-01-25T16:54:42.070Z,70.10
2018-01-25T16:57:08.294Z,71.70
2018-01-25T16:59:35.019Z,71.00
2018-01-25T17:02:02.021Z,71.10
2018-01-25T17:04:28.895Z,71.10
2018-01-25T17:06:56.608Z,72.90
2018-01-25T17:09:24.285Z,72.80
2018-01-25T17:11:51.492Z,72.90
2018-01-25T17:14:17.949Z,72.80
2018-01-25T17:16:45.118Z,72.40
2018-01-25T17:19:11.404Z,72.30
2018-01-25T17:21:37.646Z,71.60
2018-01-25T17:24:03.913Z,73.40
2018-01-25T17:26:30.182Z,73.90
2018-01-25T17:28:57.387Z,73.80
2018-01-25T17:31:24.403Z,73.60
2018-01-25T17:33:51.173Z,73.60
2018-01-25T17:36:17.967Z,72.60
2018-01-25T17:38:44.247Z,73.00
2018-01-25T17:41:10.636Z,74.10
2018-01-25T17:43:37.693Z,72.50
2018-01-25T17:46:03.938Z,72.50
2018-01-25T17:48:31.174Z,73.00
2018-01-25T17:50:57.402Z,73.50
2018-01-25T17:53:23.631Z,73.30
2018-01-25T17:55:49.879Z,72.80
2018-01-25T17:58:16.371Z,73.50
2018-01-25T18:00:43.954Z,73.50
2018-01-25T18:03:11.002Z,74.00
2018-01-25T18:05:37.707Z,74.00
2018-01-25T18:08:05.215Z,73.60
2018-01-25T18:10:32.955Z,73.50
2018-01-25T18:12:59.163Z,73.50
2018-01-25T18:15:26.969Z,73.50
2018-01-25T18:17:53.954Z,73.40
2018-01-25T18:20:20.426Z,74.40
2018-01-25T18:22:47.320Z,72.90
2018-01-25T18:25:13.627Z,73.00
2018-01-25T18:27:40.813Z,74.80
2018-01-25T18:30:07.827Z,74.50
2018-01-25T18:32:34.147Z,74.50
2018-01-25T18:35:00.417Z,74.90
2018-01-25T18:37:27.531Z,76.10
2018-01-25T18:39:54.709Z,76.10
2018-01-25T18:42:21.791Z,74.90
2018-01-25T18:44:48.059Z,75.00
2018-01-25T18:47:14.280Z,74.40
2018-01-25T18:49:41.052Z,75.10
2018-01-25T18:52:08.041Z,75.90
2018-01-25T18:54:34.861Z,75.90
2018-01-25T18:57:02.302Z,75.70
2018-01-25T18:59:29.478Z,76.50
2018-01-25T19:01:55.905Z,76.40
2018-01-25T19:04:22.679Z,76.90
2018-01-25T19:06:49.855Z,75.70
2018-01-25T19:09:16.104Z,75.70
2018-01-25T19:11:43.004Z,74.80
2018-01-25T19:14:09.951Z,74.10
2018-01-25T19:16:37.022Z,74.50
2018-01-25T19:19:03.281Z,74.30
2018-01-25T19:21:30.177Z,73.70
2018-01-25T19:23:56.599Z,73.40
2018-01-25T19:26:22.889Z,73.70
2018-01-25T19:28:49.939Z,74.10
2018-01-25T19:31:16.275Z,74.00
2018-01-25T19:33:43.132Z,75.00
2018-01-25T19:36:09.468Z,74.50
2018-01-25T19:38:35.873Z,75.10
2018-01-25T19:41:02.823Z,75.10
2018-01-25T19:43:29.927Z,75.20
2018-01-25T19:45:57.194Z,75.20
2018-01-25T19:48:23.433Z,75.20
2018-01-25T19:50:50.389Z,74.70
2018-01-25T19:53:17.560Z,73.70
2018-01-25T19:55:44.802Z,73.60
2018-01-25T19:58:11.012Z,73.50
2018-01-25T20:00:38.098Z,74.50
2018-01-25T20:03:05.511Z,74.40
2018-01-25T20:05:32.515Z,74.70
2018-01-25T20:07:59.166Z,74.70
2018-01-25T20:10:26.734Z,74.20
2018-01-25T20:12:52.945Z,74.10
2018-01-25T20:15:20.151Z,73.70
2018-01-25T20:17:55.888Z,73.50
2018-01-25T20:20:22.857Z,76.70
2018-01-25T20:22:50.099Z,76.60
2018-01-25T20:25:16.490Z,76.30
2018-01-25T20:27:43.224Z,75.10
2018-01-25T20:30:10.173Z,74.80
2018-01-25T20:32:37.391Z,74.50
2018-01-25T20:35:04.835Z,74.10
2018-01-25T20:37:31.635Z,74.30
2018-01-25T20:39:59.244Z,73.80
2018-01-25T20:42:25.988Z,73.80
2018-01-25T20:44:52.950Z,74.10
2018-01-25T20:47:19.665Z,73.70
2018-01-25T20:49:46.114Z,74.10
2018-01-25T20:52:13.277Z,73.90
2018-01-25T20:54:39.623Z,74.50
2018-01-25T20:57:06.687Z,74.20
2018-01-25T20:59:40.989Z,74.60
2018-01-25T21:02:08.313Z,74.00
2018-01-25T21:04:34.559Z,74.00
2018-01-25T21:07:01.305Z,74.20
2018-01-25T21:09:27.881Z,74.40
2018-01-25T21:11:54.453Z,74.30
2018-01-25T21:14:22.244Z,73.90
2018-01-25T21:16:49.333Z,73.70
2018-01-25T21:19:15.558Z,73.50
2018-01-25T21:21:42.519Z,73.90
2018-01-25T21:24:08.752Z,73.70
2018-01-25T21:26:34.970Z,73.60
2018-01-25T21:29:01.283Z,73.30
2018-01-25T21:31:28.253Z,74.60
2018-01-25T21:33:55.585Z,74.50
2018-01-25T21:36:22.568Z,75.20
2018-01-25T21:38:48.860Z,75.10
2018-01-25T21:41:15.830Z,78.00
2018-01-25T21:43:42.148Z,77.90
2018-01-25T21:46:09.998Z,77.40
2018-01-25T21:48:37.628Z,76.90
2018-01-25T21:51:04.461Z,76.90
2018-01-25T21:53:30.680Z,77.00
2018-01-25T21:55:57.079Z,76.00
2018-01-25T21:58:24.662Z,75.00
2018-01-25T22:00:50.933Z,75.00
2018-01-25T22:03:17.886Z,75.60
2018-01-25T22:05:45.387Z,76.90
2018-01-25T22:08:11.603Z,76.80
2018-01-25T22:10:38.921Z,77.40
2018-01-25T22:13:05.942Z,75.70
2018-01-25T22:15:32.728Z,75.70
2018-01-25T22:17:58.959Z,75.10
2018-01-25T22:20:26.657Z,75.10
2018-01-25T22:22:53.713Z,75.10
2018-01-25T22:25:19.915Z,75.00
2018-01-25T22:27:46.137Z,75.20
2018-01-25T22:30:12.423Z,75.10
2018-01-25T22:32:40.385Z,77.30
2018-01-25T22:35:08.640Z,77.20
2018-01-25T22:37:35.170Z,76.40
2018-01-25T22:40:01.820Z,76.60
2018-01-25T22:42:29.442Z,75.00
2018-01-25T22:44:55.641Z,75.00
2018-01-25T22:47:22.598Z,75.20
2018-01-25T22:49:49.751Z,75.10
2018-01-25T22:52:16.771Z,76.40
2018-01-25T22:54:43.622Z,76.40
2018-01-25T22:57:10.577Z,78.60
2018-01-25T22:59:37.060Z,78.60
2018-01-25T23:02:04.041Z,79.20
2018-01-25T23:04:31.003Z,78.60
2018-01-25T23:06:57.215Z,78.40
2018-01-25T23:09:24.186Z,78.90
2018-01-25T23:11:50.402Z,78.80
2018-01-25T23:14:17.315Z,79.60
2018-01-25T23:16:44.065Z,79.70
2018-01-25T23:19:11.034Z,80.80
2018-01-25T23:21:37.214Z,80.80
2018-01-25T23:24:04.007Z,81.20
2018-01-25T23:26:30.217Z,81.50
2018-01-25T23:28:57.202Z,81.40
2018-01-25T23:31:24.081Z,81.40
2018-01-25T23:33:50.923Z,82.20
2018-01-25T23:36:17.350Z,82.70
2018-01-25T23:38:45.358Z,80.70
2018-01-25T23:41:11.647Z,80.70
2018-01-25T23:43:37.995Z,80.60
2018-01-25T23:46:04.250Z,80.00
2018-01-25T23:48:30.542Z,80.60
2018-01-25T23:50:57.323Z,80.50
2018-01-25T23:53:24.109Z,80.70
2018-01-25T23:55:50.452Z,81.00
2018-01-25T23:58:16.640Z,81.00
